createdAt,value
2022-07-28T00:00:45.744Z,10.60
2022-07-28T00:05:50.592Z,10.65
2022-07-28T00:10:54.221Z,10.41
2022-07-28T00:15:57.895Z,10.43
2022-07-28T00:21:02.992Z,10.31
2022-07-28T00:26:06.914Z,10.32
2022-07-28T00:31:11.008Z,10.21
2022-07-28T00:36:17.565Z,10.25
2022-07-28T00:41:23.126Z,10.02
2022-07-28T00:46:26.582Z,10.06
2022-07-28T00:51:31.623Z,9.79
2022-07-28T00:56:36.188Z,9.81
2022-07-28T01:01:39.851Z,9.76
2022-07-28T01:06:53.452Z,9.86
2022-07-28T01:12:02.596Z,9.73
2022-07-28T01:17:12.800Z,9.67
2022-07-28T01:22:22.408Z,9.16
2022-07-28T01:27:36.774Z,9.31
2022-07-28T01:32:45.528Z,9.29
2022-07-28T01:37:54.944Z,9.15
2022-07-28T01:43:02.613Z,9.13
2022-07-28T01:48:09.533Z,9.12
2022-07-28T01:53:15.464Z,9.08
2022-07-28T01:58:21.460Z,9.01
2022-07-28T02:03:29.054Z,8.94
2022-07-28T02:08:34.713Z,8.85
2022-07-28T02:13:39.679Z,8.97
2022-07-28T02:18:45.150Z,9.06
2022-07-28T02:23:49.942Z,8.99
2022-07-28T02:28:56.228Z,8.89
2022-07-28T02:34:04.379Z,8.71
2022-07-28T02:39:19.779Z,8.59
2022-07-28T02:44:29.547Z,8.56
2022-07-28T02:49:37.250Z,8.65
2022-07-28T02:54:41.945Z,8.67
2022-07-28T02:59:46.236Z,8.51
2022-07-28T03:05:00.851Z,8.50
2022-07-28T03:10:05.727Z,8.47
2022-07-28T03:15:10.330Z,8.58
2022-07-28T03:20:16.276Z,8.35
2022-07-28T03:25:27.583Z,8.36
2022-07-28T03:30:38.157Z,8.18
2022-07-28T03:35:48.162Z,8.33
2022-07-28T03:40:54.205Z,8.15
2022-07-28T03:45:57.738Z,8.42
2022-07-28T03:51:02.768Z,8.48
2022-07-28T03:56:06.423Z,8.68
2022-07-28T04:01:10.201Z,8.52
2022-07-28T04:06:15.962Z,8.71
2022-07-28T04:11:19.439Z,8.78
2022-07-28T04:16:23.056Z,8.78
2022-07-28T04:21:28.549Z,8.80
2022-07-28T04:26:32.202Z,8.89
2022-07-28T04:31:35.745Z,8.69
2022-07-28T04:36:43.849Z,9.08
2022-07-28T04:41:47.412Z,9.31
2022-07-28T04:46:51.213Z,9.47
2022-07-28T04:51:57.112Z,9.67
2022-07-28T04:57:00.964Z,9.58
2022-07-28T05:02:10.108Z,9.67
2022-07-28T05:07:15.021Z,9.95
2022-07-28T05:12:18.728Z,10.59
2022-07-28T05:17:22.428Z,11.05
2022-07-28T05:22:27.311Z,11.40
2022-07-28T05:27:30.855Z,11.77
2022-07-28T05:32:34.448Z,11.95
2022-07-28T05:37:39.694Z,11.91
2022-07-28T05:42:44.973Z,12.14
2022-07-28T05:47:49.978Z,12.01
2022-07-28T05:52:55.162Z,12.10
2022-07-28T05:58:00.345Z,13.13
2022-07-28T06:03:04.302Z,13.54
2022-07-28T06:08:09.585Z,14.06
2022-07-28T06:13:15.980Z,14.80
2022-07-28T06:18:19.863Z,15.71
2022-07-28T06:23:25.184Z,17.39
2022-07-28T06:28:28.632Z,17.85
2022-07-28T06:33:32.407Z,19.73
2022-07-28T06:38:37.498Z,20.92
2022-07-28T06:43:41.083Z,20.45
2022-07-28T06:48:46.087Z,19.28
2022-07-28T06:53:51.366Z,19.12
2022-07-28T06:58:55.146Z,21.48
2022-07-28T07:03:59.567Z,22.40
2022-07-28T07:09:04.955Z,21.57
2022-07-28T07:14:08.684Z,21.35
2022-07-28T07:19:15.771Z,21.02
2022-07-28T07:24:21.510Z,20.97
2022-07-28T07:29:30.505Z,21.02
2022-07-28T07:34:34.965Z,21.28
2022-07-28T07:39:40.228Z,21.03
2022-07-28T07:44:50.426Z,20.45
2022-07-28T07:49:54.011Z,21.20
2022-07-28T07:54:59.607Z,20.66
2022-07-28T08:00:03.490Z,21.40
2022-07-28T08:05:08.945Z,21.46
2022-07-28T08:10:15.381Z,20.89
2022-07-28T08:15:19.189Z,20.87
2022-07-28T08:20:23.083Z,21.90
2022-07-28T08:25:28.251Z,21.68
2022-07-28T08:30:33.012Z,21.73
2022-07-28T08:35:36.970Z,22.53
2022-07-28T08:40:46.677Z,22.71
2022-07-28T08:45:58.148Z,22.28
2022-07-28T08:51:04.522Z,23.03
2022-07-28T08:56:13.342Z,22.49
2022-07-28T09:01:18.061Z,21.85
2022-07-28T09:06:23.781Z,23.15
2022-07-28T09:11:30.253Z,23.03
2022-07-28T09:16:34.358Z,22.77
2022-07-28T09:21:38.533Z,23.61
2022-07-28T09:27:02.853Z,23.98
2022-07-28T09:32:07.267Z,24.80
2022-07-28T09:37:20.107Z,24.23
2022-07-28T09:42:46.717Z,22.72
2022-07-28T09:47:50.321Z,23.45
2022-07-28T09:52:53.961Z,23.19
2022-07-28T09:57:59.020Z,23.94
2022-07-28T10:03:02.864Z,24.12
2022-07-28T10:08:06.766Z,25.62
2022-07-28T10:13:11.810Z,23.72
2022-07-28T10:18:15.627Z,25.49
2022-07-28T10:23:20.518Z,23.74
2022-07-28T10:28:26.462Z,25.33
2022-07-28T10:33:33.119Z,25.17
2022-07-28T10:38:38.136Z,24.46
2022-07-28T10:43:45.479Z,25.69
2022-07-28T10:48:50.129Z,25.31
2022-07-28T10:53:57.269Z,26.61
2022-07-28T10:59:12.396Z,25.87
2022-07-28T11:04:52.751Z,25.08
2022-07-28T11:10:16.762Z,24.88
2022-07-28T11:15:33.331Z,25.46
2022-07-28T11:21:11.608Z,25.85
2022-07-28T11:26:38.070Z,25.60
2022-07-28T11:32:07.674Z,26.24
2022-07-28T11:37:15.144Z,25.72
2022-07-28T11:42:27.613Z,25.41
2022-07-28T11:47:32.918Z,25.09
2022-07-28T11:52:37.847Z,26.12
2022-07-28T11:57:44.161Z,25.20
2022-07-28T12:02:49.620Z,26.49
2022-07-28T12:07:53.954Z,26.04
2022-07-28T12:12:59.423Z,26.09
2022-07-28T12:18:05.012Z,26.90
2022-07-28T12:23:10.603Z,26.50
2022-07-28T12:28:18.925Z,26.56
2022-07-28T12:33:29.759Z,26.63
2022-07-28T12:38:34.262Z,26.91
2022-07-28T12:43:37.947Z,26.05
2022-07-28T12:48:43.027Z,26.74
2022-07-28T12:53:52.422Z,26.53
2022-07-28T12:59:07.509Z,26.32
2022-07-28T13:04:12.915Z,27.41
2022-07-28T13:09:24.274Z,27.71
2022-07-28T13:14:43.732Z,25.96
2022-07-28T13:19:51.110Z,25.98
2022-07-28T13:24:57.501Z,26.99
2022-07-28T13:30:02.382Z,27.18
2022-07-28T13:35:14.896Z,26.64
2022-07-28T13:40:19.636Z,26.92
2022-07-28T13:45:24.009Z,26.36
2022-07-28T13:50:30.496Z,26.65
2022-07-28T13:55:34.207Z,26.10
2022-07-28T14:00:38.359Z,26.83
2022-07-28T14:05:43.548Z,27.48
2022-07-28T14:10:48.489Z,27.49
2022-07-28T14:16:02.457Z,27.01
2022-07-28T14:21:11.983Z,26.40
2022-07-28T14:26:34.829Z,26.70
2022-07-28T14:31:39.520Z,26.45
2022-07-28T14:36:45.208Z,26.63
2022-07-28T14:41:50.298Z,26.45
2022-07-28T14:46:54.427Z,26.51
2022-07-28T14:52:00.065Z,26.73
2022-07-28T14:57:04.125Z,26.97
2022-07-28T15:02:09.241Z,26.92
2022-07-28T15:07:14.808Z,26.98
2022-07-28T15:12:18.935Z,27.17
2022-07-28T15:17:22.573Z,25.97
2022-07-28T15:22:28.015Z,25.96
2022-07-28T15:27:33.760Z,25.98
2022-07-28T15:32:54.204Z,26.20
2022-07-28T15:38:01.371Z,25.64
2022-07-28T15:43:05.844Z,25.76
2022-07-28T15:48:10.226Z,25.83
2022-07-28T15:53:16.444Z,25.80
2022-07-28T15:58:22.494Z,25.83
2022-07-28T16:03:27.026Z,25.92
2022-07-28T16:08:32.737Z,25.61
2022-07-28T16:13:37.569Z,25.75
2022-07-28T16:18:43.838Z,25.63
2022-07-28T16:23:49.476Z,25.58
2022-07-28T16:28:53.323Z,25.48
2022-07-28T16:33:58.130Z,25.01
2022-07-28T16:39:03.749Z,25.40
2022-07-28T16:44:08.016Z,25.24
2022-07-28T16:49:11.612Z,24.92
2022-07-28T16:54:17.556Z,24.17
2022-07-28T16:59:22.039Z,24.31
2022-07-28T17:04:26.581Z,24.02
2022-07-28T17:09:31.995Z,23.89
2022-07-28T17:14:36.189Z,23.84
2022-07-28T17:19:46.447Z,23.61
2022-07-28T17:24:52.609Z,23.47
2022-07-28T17:29:57.968Z,23.43
2022-07-28T17:35:01.617Z,23.35
2022-07-28T17:40:08.930Z,23.44
2022-07-28T17:45:13.966Z,23.27
2022-07-28T17:50:18.924Z,23.30
2022-07-28T17:55:40.707Z,23.14
2022-07-28T18:01:10.598Z,22.96
2022-07-28T18:06:15.879Z,22.80
2022-07-28T18:11:21.051Z,22.45
2022-07-28T18:16:24.827Z,22.26
2022-07-28T18:21:28.750Z,22.05
2022-07-28T18:26:33.727Z,21.95
2022-07-28T18:31:43.816Z,21.92
2022-07-28T18:36:50.126Z,21.72
2022-07-28T18:41:57.406Z,21.65
2022-07-28T18:47:02.296Z,21.29
2022-07-28T18:52:06.468Z,20.95
2022-07-28T18:57:11.855Z,21.01
2022-07-28T19:02:16.716Z,20.80
2022-07-28T19:07:21.754Z,20.53
2022-07-28T19:12:28.968Z,20.11
2022-07-28T19:17:33.916Z,20.10
2022-07-28T19:22:38.147Z,19.80
2022-07-28T19:27:43.940Z,19.67
2022-07-28T19:32:47.494Z,19.28
2022-07-28T19:37:51.654Z,19.07
2022-07-28T19:42:57.650Z,18.53
2022-07-28T19:48:03.444Z,18.30
2022-07-28T19:53:07.374Z,17.82
2022-07-28T19:58:21.142Z,17.64
2022-07-28T20:04:01.687Z,17.52
2022-07-28T20:08:49.935Z,17.22
2022-07-28T20:13:54.753Z,17.24
2022-07-28T20:18:59.775Z,17.07
2022-07-28T20:24:04.923Z,16.68
2022-07-28T20:29:12.369Z,16.64
2022-07-28T20:34:17.679Z,16.50
2022-07-28T20:39:43.975Z,16.33
2022-07-28T20:44:47.522Z,15.95
2022-07-28T20:49:51.337Z,16.01
2022-07-28T20:54:55.448Z,15.82
2022-07-28T21:00:00.924Z,15.10
2022-07-28T21:05:04.704Z,15.27
2022-07-28T21:10:12.176Z,15.32
2022-07-28T21:15:17.141Z,15.37
2022-07-28T21:20:21.659Z,15.30
2022-07-28T21:25:25.587Z,15.23
2022-07-28T21:30:30.681Z,15.13
2022-07-28T21:35:35.063Z,15.10
2022-07-28T21:40:39.483Z,14.82
2022-07-28T21:45:46.750Z,14.64
2022-07-28T21:50:51.135Z,14.29
2022-07-28T21:55:54.941Z,14.48
2022-07-28T22:01:02.802Z,14.86
2022-07-28T22:06:08.388Z,15.04
2022-07-28T22:11:12.148Z,15.03
2022-07-28T22:16:18.167Z,15.07
2022-07-28T22:21:21.636Z,15.00
2022-07-28T22:26:26.470Z,15.06
2022-07-28T22:31:31.609Z,14.99
2022-07-28T22:36:35.404Z,14.74
2022-07-28T22:41:38.922Z,15.17
2022-07-28T22:46:44.355Z,14.93
2022-07-28T22:51:48.342Z,14.91
2022-07-28T22:56:52.059Z,14.98
2022-07-28T23:01:56.862Z,15.13
2022-07-28T23:07:01.993Z,14.85
2022-07-28T23:12:06.154Z,14.55
2022-07-28T23:17:11.093Z,14.34
2022-07-28T23:22:14.605Z,14.27
2022-07-28T23:27:18.400Z,14.37
2022-07-28T23:32:23.422Z,14.37
2022-07-28T23:37:26.894Z,14.12
2022-07-28T23:42:30.336Z,14.37
2022-07-28T23:47:35.333Z,14.34
2022-07-28T23:52:38.864Z,14.18
2022-07-28T23:57:42.605Z,14.04
